sensor_id;sensor_type;location;lat;lon;timestamp;P1;durP1;ratioP1;P2;durP2;ratioP2
22754;SDS011;11544;42.020;23.094;2023-05-10T00:00:00;1.42;;;1.33;;
22754;SDS011;11544;42.020;23.094;2023-05-10T00:02:27;3.33;;;1.40;;
22754;SDS011;11544;42.020;23.094;2023-05-10T00:04:57;1.45;;;1.35;;
22754;SDS011;11544;42.020;23.094;2023-05-10T00:07:26;1.92;;;1.52;;
22754;SDS011;11544;42.020;23.094;2023-05-10T00:09:58;2.97;;;1.50;;
22754;SDS011;11544;42.020;23.094;2023-05-10T00:12:26;3.28;;;1.48;;
22754;SDS011;11544;42.020;23.094;2023-05-10T00:25:47;3.13;;;1.73;;
22754;SDS011;11544;42.020;23.094;2023-05-10T00:28:14;1.40;;;1.30;;
22754;SDS011;11544;42.020;23.094;2023-05-10T00:30:41;4.68;;;1.60;;
22754;SDS011;11544;42.020;23.094;2023-05-10T00:33:08;2.38;;;1.35;;
22754;SDS011;11544;42.020;23.094;2023-05-10T00:35:35;1.45;;;1.30;;
22754;SDS011;11544;42.020;23.094;2023-05-10T00:38:02;3.30;;;1.60;;
22754;SDS011;11544;42.020;23.094;2023-05-10T00:40:29;2.17;;;1.52;;
22754;SDS011;11544;42.020;23.094;2023-05-10T00:42:57;3.25;;;1.85;;
22754;SDS011;11544;42.020;23.094;2023-05-10T00:45:25;2.20;;;1.58;;
22754;SDS011;11544;42.020;23.094;2023-05-10T00:48:03;3.15;;;1.63;;
22754;SDS011;11544;42.020;23.094;2023-05-10T00:50:40;3.38;;;1.58;;
22754;SDS011;11544;42.020;23.094;2023-05-10T00:53:14;2.45;;;1.50;;
22754;SDS011;11544;42.020;23.094;2023-05-10T00:55:46;1.63;;;1.52;;
22754;SDS011;11544;42.020;23.094;2023-05-10T00:58:14;2.33;;;1.52;;
22754;SDS011;11544;42.020;23.094;2023-05-10T01:00:44;1.88;;;1.63;;
22754;SDS011;11544;42.020;23.094;2023-05-10T01:03:13;1.58;;;1.30;;
22754;SDS011;11544;42.020;23.094;2023-05-10T01:05:40;1.45;;;1.20;;
22754;SDS011;11544;42.020;23.094;2023-05-10T01:08:10;1.80;;;1.70;;
22754;SDS011;11544;42.020;23.094;2023-05-10T01:10:40;2.83;;;1.77;;
22754;SDS011;11544;42.020;23.094;2023-05-10T01:13:10;1.92;;;1.60;;
22754;SDS011;11544;42.020;23.094;2023-05-10T01:15:38;1.83;;;1.70;;
22754;SDS011;11544;42.020;23.094;2023-05-10T01:18:06;2.78;;;1.73;;
22754;SDS011;11544;42.020;23.094;2023-05-10T01:20:38;2.28;;;1.65;;
22754;SDS011;11544;42.020;23.094;2023-05-10T01:34:40;2.30;;;1.55;;
22754;SDS011;11544;42.020;23.094;2023-05-10T01:37:25;3.45;;;1.50;;
22754;SDS011;11544;42.020;23.094;2023-05-10T01:40:05;2.83;;;1.70;;
22754;SDS011;11544;42.020;23.094;2023-05-10T02:01:27;2.83;;;1.98;;
22754;SDS011;11544;42.020;23.094;2023-05-10T02:03:55;2.92;;;1.95;;
22754;SDS011;11544;42.020;23.094;2023-05-10T02:06:23;4.65;;;2.08;;
22754;SDS011;11544;42.020;23.094;2023-05-10T02:08:52;2.08;;;1.88;;
22754;SDS011;11544;42.020;23.094;2023-05-10T02:11:21;2.45;;;2.20;;
22754;SDS011;11544;42.020;23.094;2023-05-10T02:13:50;2.75;;;2.30;;
22754;SDS011;11544;42.020;23.094;2023-05-10T02:16:20;3.00;;;2.60;;
22754;SDS011;11544;42.020;23.094;2023-05-10T02:21:51;2.92;;;2.50;;
22754;SDS011;11544;42.020;23.094;2023-05-10T02:32:32;3.03;;;2.50;;
22754;SDS011;11544;42.020;23.094;2023-05-10T02:35:03;3.47;;;3.08;;
22754;SDS011;11544;42.020;23.094;2023-05-10T02:37:32;4.60;;;3.10;;
22754;SDS011;11544;42.020;23.094;2023-05-10T02:40:04;5.07;;;2.80;;
22754;SDS011;11544;42.020;23.094;2023-05-10T02:42:33;4.63;;;3.63;;
22754;SDS011;11544;42.020;23.094;2023-05-10T02:45:05;3.72;;;3.33;;
22754;SDS011;11544;42.020;23.094;2023-05-10T02:47:37;3.30;;;3.00;;
22754;SDS011;11544;42.020;23.094;2023-05-10T02:50:05;3.95;;;3.50;;
22754;SDS011;11544;42.020;23.094;2023-05-10T02:52:51;3.50;;;3.20;;
22754;SDS011;11544;42.020;23.094;2023-05-10T02:55:27;4.18;;;3.53;;
22754;SDS011;11544;42.020;23.094;2023-05-10T02:58:03;4.32;;;3.92;;
22754;SDS011;11544;42.020;23.094;2023-05-10T03:00:30;5.07;;;3.67;;
22754;SDS011;11544;42.020;23.094;2023-05-10T03:03:00;4.22;;;3.72;;
22754;SDS011;11544;42.020;23.094;2023-05-10T03:05:33;3.80;;;3.40;;
22754;SDS011;11544;42.020;23.094;2023-05-10T03:08:00;4.30;;;3.53;;
22754;SDS011;11544;42.020;23.094;2023-05-10T03:10:32;7.07;;;3.78;;
22754;SDS011;11544;42.020;23.094;2023-05-10T03:13:13;3.33;;;2.95;;
22754;SDS011;11544;42.020;23.094;2023-05-10T03:15:59;4.00;;;3.60;;
22754;SDS011;11544;42.020;23.094;2023-05-10T03:18:44;3.30;;;3.00;;
22754;SDS011;11544;42.020;23.094;2023-05-10T03:21:17;4.00;;;3.45;;
22754;SDS011;11544;42.020;23.094;2023-05-10T03:23:48;3.72;;;3.28;;
22754;SDS011;11544;42.020;23.094;2023-05-10T03:26:23;4.88;;;2.90;;
22754;SDS011;11544;42.020;23.094;2023-05-10T03:29:06;4.03;;;3.60;;
22754;SDS011;11544;42.020;23.094;2023-05-10T03:31:35;3.30;;;3.00;;
22754;SDS011;11544;42.020;23.094;2023-05-10T03:34:02;4.20;;;2.88;;
22754;SDS011;11544;42.020;23.094;2023-05-10T03:36:29;3.17;;;2.60;;
22754;SDS011;11544;42.020;23.094;2023-05-10T03:38:56;3.28;;;3.08;;
22754;SDS011;11544;42.020;23.094;2023-05-10T03:41:23;3.38;;;3.08;;
22754;SDS011;11544;42.020;23.094;2023-05-10T03:43:51;4.05;;;2.80;;
22754;SDS011;11544;42.020;23.094;2023-05-10T03:46:21;4.68;;;2.78;;
22754;SDS011;11544;42.020;23.094;2023-05-10T03:48:48;3.33;;;2.75;;
22754;SDS011;11544;42.020;23.094;2023-05-10T03:51:38;4.07;;;2.80;;
22754;SDS011;11544;42.020;23.094;2023-05-10T03:54:05;3.92;;;3.25;;
22754;SDS011;11544;42.020;23.094;2023-05-10T03:56:31;4.03;;;3.00;;
22754;SDS011;11544;42.020;23.094;2023-05-10T03:58:58;3.85;;;3.53;;
22754;SDS011;11544;42.020;23.094;2023-05-10T04:01:25;3.90;;;3.50;;
22754;SDS011;11544;42.020;23.094;2023-05-10T04:03:55;4.03;;;3.40;;
22754;SDS011;11544;42.020;23.094;2023-05-10T04:06:26;6.28;;;3.95;;
22754;SDS011;11544;42.020;23.094;2023-05-10T04:08:56;4.53;;;4.00;;
22754;SDS011;11544;42.020;23.094;2023-05-10T04:11:29;5.05;;;4.10;;
22754;SDS011;11544;42.020;23.094;2023-05-10T04:13:57;5.60;;;3.95;;
22754;SDS011;11544;42.020;23.094;2023-05-10T04:16:23;4.47;;;3.88;;
22754;SDS011;11544;42.020;23.094;2023-05-10T04:18:50;5.07;;;4.20;;
22754;SDS011;11544;42.020;23.094;2023-05-10T04:21:19;5.00;;;4.50;;
22754;SDS011;11544;42.020;23.094;2023-05-10T04:23:47;4.82;;;4.32;;
22754;SDS011;11544;42.020;23.094;2023-05-10T04:26:14;4.88;;;4.38;;
22754;SDS011;11544;42.020;23.094;2023-05-10T04:28:41;5.00;;;4.50;;
22754;SDS011;11544;42.020;23.094;2023-05-10T04:31:08;8.68;;;5.35;;
22754;SDS011;11544;42.020;23.094;2023-05-10T04:33:36;5.07;;;4.63;;
22754;SDS011;11544;42.020;23.094;2023-05-10T04:36:03;5.10;;;4.60;;
22754;SDS011;11544;42.020;23.094;2023-05-10T04:38:32;7.95;;;5.20;;
22754;SDS011;11544;42.020;23.094;2023-05-10T04:41:09;7.43;;;5.60;;
22754;SDS011;11544;42.020;23.094;2023-05-10T04:43:37;7.68;;;5.32;;
22754;SDS011;11544;42.020;23.094;2023-05-10T04:46:06;7.03;;;4.97;;
22754;SDS011;11544;42.020;23.094;2023-05-10T04:48:33;7.50;;;5.30;;
22754;SDS011;11544;42.020;23.094;2023-05-10T04:51:12;5.90;;;5.25;;
22754;SDS011;11544;42.020;23.094;2023-05-10T04:53:42;6.72;;;5.63;;
22754;SDS011;11544;42.020;23.094;2023-05-10T04:56:23;6.32;;;5.72;;
22754;SDS011;11544;42.020;23.094;2023-05-10T04:58:50;6.20;;;5.60;;
22754;SDS011;11544;42.020;23.094;2023-05-10T05:01:17;6.22;;;5.38;;
22754;SDS011;11544;42.020;23.094;2023-05-10T05:03:44;6.25;;;5.63;;
22754;SDS011;11544;42.020;23.094;2023-05-10T05:06:20;5.35;;;4.85;;
22754;SDS011;11544;42.020;23.094;2023-05-10T05:08:56;5.03;;;4.53;;
22754;SDS011;11544;42.020;23.094;2023-05-10T05:11:22;8.55;;;5.28;;
22754;SDS011;11544;42.020;23.094;2023-05-10T05:13:49;9.40;;;5.45;;
22754;SDS011;11544;42.020;23.094;2023-05-10T05:16:16;9.65;;;5.65;;
22754;SDS011;11544;42.020;23.094;2023-05-10T05:18:57;6.22;;;4.75;;
22754;SDS011;11544;42.020;23.094;2023-05-10T05:21:35;6.00;;;5.00;;
22754;SDS011;11544;42.020;23.094;2023-05-10T05:24:02;6.18;;;4.65;;
22754;SDS011;11544;42.020;23.094;2023-05-10T05:26:32;7.30;;;4.95;;
22754;SDS011;11544;42.020;23.094;2023-05-10T05:28:58;5.25;;;4.75;;
22754;SDS011;11544;42.020;23.094;2023-05-10T05:31:26;5.35;;;4.85;;
22754;SDS011;11544;42.020;23.094;2023-05-10T05:33:53;5.95;;;4.65;;
22754;SDS011;11544;42.020;23.094;2023-05-10T05:36:19;6.45;;;5.28;;
22754;SDS011;11544;42.020;23.094;2023-05-10T05:38:46;5.93;;;5.22;;
22754;SDS011;11544;42.020;23.094;2023-05-10T05:41:14;6.95;;;5.32;;
22754;SDS011;11544;42.020;23.094;2023-05-10T05:43:44;6.30;;;5.47;;
22754;SDS011;11544;42.020;23.094;2023-05-10T05:46:14;5.32;;;4.78;;
22754;SDS011;11544;42.020;23.094;2023-05-10T05:48:41;5.90;;;5.30;;
22754;SDS011;11544;42.020;23.094;2023-05-10T05:51:07;5.35;;;4.63;;
22754;SDS011;11544;42.020;23.094;2023-05-10T05:53:34;6.18;;;5.40;;
22754;SDS011;11544;42.020;23.094;2023-05-10T05:56:03;7.10;;;5.60;;
22754;SDS011;11544;42.020;23.094;2023-05-10T05:58:30;8.55;;;6.20;;
22754;SDS011;11544;42.020;23.094;2023-05-10T06:00:57;7.55;;;5.72;;
22754;SDS011;11544;42.020;23.094;2023-05-10T06:03:24;8.30;;;5.57;;
22754;SDS011;11544;42.020;23.094;2023-05-10T06:05:51;6.78;;;5.78;;
22754;SDS011;11544;42.020;23.094;2023-05-10T06:08:21;7.10;;;6.20;;
22754;SDS011;11544;42.020;23.094;2023-05-10T06:10:48;9.30;;;5.90;;
22754;SDS011;11544;42.020;23.094;2023-05-10T06:13:15;6.85;;;6.03;;
22754;SDS011;11544;42.020;23.094;2023-05-10T06:15:42;7.65;;;6.07;;
22754;SDS011;11544;42.020;23.094;2023-05-10T06:18:10;7.15;;;5.60;;
22754;SDS011;11544;42.020;23.094;2023-05-10T06:20:36;7.50;;;6.20;;
22754;SDS011;11544;42.020;23.094;2023-05-10T06:23:03;7.18;;;6.32;;
22754;SDS011;11544;42.020;23.094;2023-05-10T06:25:30;8.40;;;6.53;;
22754;SDS011;11544;42.020;23.094;2023-05-10T06:27:57;8.80;;;7.63;;
22754;SDS011;11544;42.020;23.094;2023-05-10T06:30:38;8.13;;;6.63;;
22754;SDS011;11544;42.020;23.094;2023-05-10T06:33:05;8.93;;;6.70;;
22754;SDS011;11544;42.020;23.094;2023-05-10T06:35:32;11.40;;;6.90;;
22754;SDS011;11544;42.020;23.094;2023-05-10T06:37:59;8.80;;;6.55;;
22754;SDS011;11544;42.020;23.094;2023-05-10T06:40:26;8.25;;;6.70;;
22754;SDS011;11544;42.020;23.094;2023-05-10T06:42:53;7.43;;;6.50;;
22754;SDS011;11544;42.020;23.094;2023-05-10T06:45:20;9.18;;;6.38;;
22754;SDS011;11544;42.020;23.094;2023-05-10T06:47:47;10.60;;;7.35;;
22754;SDS011;11544;42.020;23.094;2023-05-10T06:50:15;7.10;;;6.40;;
22754;SDS011;11544;42.020;23.094;2023-05-10T06:52:42;7.18;;;6.22;;
22754;SDS011;11544;42.020;23.094;2023-05-10T06:55:09;10.40;;;7.32;;
22754;SDS011;11544;42.020;23.094;2023-05-10T06:57:37;10.18;;;7.03;;
22754;SDS011;11544;42.020;23.094;2023-05-10T07:00:03;10.48;;;7.45;;
22754;SDS011;11544;42.020;23.094;2023-05-10T07:02:31;9.68;;;7.65;;
22754;SDS011;11544;42.020;23.094;2023-05-10T07:05:02;9.40;;;7.70;;
22754;SDS011;11544;42.020;23.094;2023-05-10T07:07:32;8.73;;;7.72;;
22754;SDS011;11544;42.020;23.094;2023-05-10T07:10:02;10.00;;;6.80;;
22754;SDS011;11544;42.020;23.094;2023-05-10T07:12:29;8.57;;;7.18;;
22754;SDS011;11544;42.020;23.094;2023-05-10T07:14:55;8.27;;;7.20;;
22754;SDS011;11544;42.020;23.094;2023-05-10T07:17:27;8.82;;;7.25;;
22754;SDS011;11544;42.020;23.094;2023-05-10T07:19:54;11.85;;;7.47;;
22754;SDS011;11544;42.020;23.094;2023-05-10T07:22:20;9.85;;;7.78;;
22754;SDS011;11544;42.020;23.094;2023-05-10T07:24:47;9.13;;;7.70;;
22754;SDS011;11544;42.020;23.094;2023-05-10T07:27:14;9.02;;;7.10;;
22754;SDS011;11544;42.020;23.094;2023-05-10T07:29:41;9.10;;;7.03;;
22754;SDS011;11544;42.020;23.094;2023-05-10T07:32:08;9.48;;;7.07;;
22754;SDS011;11544;42.020;23.094;2023-05-10T07:34:35;11.23;;;7.13;;
22754;SDS011;11544;42.020;23.094;2023-05-10T07:37:02;9.40;;;7.07;;
22754;SDS011;11544;42.020;23.094;2023-05-10T07:39:38;11.07;;;8.38;;
22754;SDS011;11544;42.020;23.094;2023-05-10T07:42:05;8.65;;;6.82;;
22754;SDS011;11544;42.020;23.094;2023-05-10T07:44:32;13.73;;;8.10;;
22754;SDS011;11544;42.020;23.094;2023-05-10T07:46:59;12.00;;;7.30;;
22754;SDS011;11544;42.020;23.094;2023-05-10T07:49:26;9.63;;;6.70;;
22754;SDS011;11544;42.020;23.094;2023-05-10T07:51:53;9.55;;;6.53;;
22754;SDS011;11544;42.020;23.094;2023-05-10T07:54:20;8.32;;;6.78;;
22754;SDS011;11544;42.020;23.094;2023-05-10T07:56:46;8.52;;;6.93;;
22754;SDS011;11544;42.020;23.094;2023-05-10T07:59:14;9.82;;;7.85;;
22754;SDS011;11544;42.020;23.094;2023-05-10T08:01:44;11.07;;;8.30;;
22754;SDS011;11544;42.020;23.094;2023-05-10T08:04:11;12.25;;;9.55;;
22754;SDS011;11544;42.020;23.094;2023-05-10T08:06:39;13.45;;;7.95;;
22754;SDS011;11544;42.020;23.094;2023-05-10T08:09:06;15.23;;;11.02;;
22754;SDS011;11544;42.020;23.094;2023-05-10T08:11:35;12.18;;;8.07;;
22754;SDS011;11544;42.020;23.094;2023-05-10T08:14:02;10.48;;;8.23;;
22754;SDS011;11544;42.020;23.094;2023-05-10T08:16:29;14.77;;;8.95;;
22754;SDS011;11544;42.020;23.094;2023-05-10T08:18:56;15.48;;;9.52;;
22754;SDS011;11544;42.020;23.094;2023-05-10T08:21:23;10.95;;;9.15;;
22754;SDS011;11544;42.020;23.094;2023-05-10T08:23:53;10.48;;;9.00;;
22754;SDS011;11544;42.020;23.094;2023-05-10T08:26:20;10.13;;;8.00;;
22754;SDS011;11544;42.020;23.094;2023-05-10T08:28:48;12.77;;;7.93;;
22754;SDS011;11544;42.020;23.094;2023-05-10T08:31:14;10.45;;;8.45;;
22754;SDS011;11544;42.020;23.094;2023-05-10T08:33:42;12.88;;;9.65;;
22754;SDS011;11544;42.020;23.094;2023-05-10T08:36:10;17.17;;;9.30;;
22754;SDS011;11544;42.020;23.094;2023-05-10T08:38:40;11.40;;;8.38;;
22754;SDS011;11544;42.020;23.094;2023-05-10T08:41:07;10.88;;;8.90;;
22754;SDS011;11544;42.020;23.094;2023-05-10T08:43:43;12.82;;;8.45;;
22754;SDS011;11544;42.020;23.094;2023-05-10T08:46:16;10.95;;;8.50;;
22754;SDS011;11544;42.020;23.094;2023-05-10T08:48:47;9.77;;;8.18;;
22754;SDS011;11544;42.020;23.094;2023-05-10T08:51:19;14.23;;;8.55;;
22754;SDS011;11544;42.020;23.094;2023-05-10T08:53:48;13.02;;;8.45;;
22754;SDS011;11544;42.020;23.094;2023-05-10T08:56:15;11.05;;;8.18;;
22754;SDS011;11544;42.020;23.094;2023-05-10T08:58:44;12.55;;;8.60;;
22754;SDS011;11544;42.020;23.094;2023-05-10T09:01:11;12.95;;;9.88;;
22754;SDS011;11544;42.020;23.094;2023-05-10T09:03:45;12.55;;;9.38;;
22754;SDS011;11544;42.020;23.094;2023-05-10T09:06:14;9.82;;;7.55;;
22754;SDS011;11544;42.020;23.094;2023-05-10T09:08:41;10.48;;;8.13;;
22754;SDS011;11544;42.020;23.094;2023-05-10T09:11:09;9.85;;;7.93;;
22754;SDS011;11544;42.020;23.094;2023-05-10T09:13:36;10.68;;;8.13;;
22754;SDS011;11544;42.020;23.094;2023-05-10T09:16:03;11.68;;;7.78;;
22754;SDS011;11544;42.020;23.094;2023-05-10T09:18:46;9.07;;;7.15;;
22754;SDS011;11544;42.020;23.094;2023-05-10T09:21:13;10.52;;;8.20;;
22754;SDS011;11544;42.020;23.094;2023-05-10T09:23:44;16.45;;;8.60;;
22754;SDS011;11544;42.020;23.094;2023-05-10T09:26:14;8.25;;;6.68;;
22754;SDS011;11544;42.020;23.094;2023-05-10T09:28:50;8.88;;;7.07;;
22754;SDS011;11544;42.020;23.094;2023-05-10T09:31:22;13.95;;;6.78;;
22754;SDS011;11544;42.020;23.094;2023-05-10T09:33:51;8.70;;;6.20;;
22754;SDS011;11544;42.020;23.094;2023-05-10T09:36:18;7.03;;;5.18;;
22754;SDS011;11544;42.020;23.094;2023-05-10T09:38:48;9.32;;;7.00;;
22754;SDS011;11544;42.020;23.094;2023-05-10T09:41:23;11.95;;;7.95;;
22754;SDS011;11544;42.020;23.094;2023-05-10T09:43:50;9.55;;;7.70;;
22754;SDS011;11544;42.020;23.094;2023-05-10T09:46:21;9.88;;;7.07;;
22754;SDS011;11544;42.020;23.094;2023-05-10T09:48:49;8.40;;;5.80;;
22754;SDS011;11544;42.020;23.094;2023-05-10T09:51:34;7.88;;;6.50;;
22754;SDS011;11544;42.020;23.094;2023-05-10T09:54:12;6.53;;;5.72;;
22754;SDS011;11544;42.020;23.094;2023-05-10T09:56:40;6.28;;;4.97;;
22754;SDS011;11544;42.020;23.094;2023-05-10T09:59:11;6.40;;;5.20;;
22754;SDS011;11544;42.020;23.094;2023-05-10T10:01:38;6.30;;;5.20;;
22754;SDS011;11544;42.020;23.094;2023-05-10T10:04:10;7.85;;;5.93;;
22754;SDS011;11544;42.020;23.094;2023-05-10T10:06:40;6.00;;;4.63;;
22754;SDS011;11544;42.020;23.094;2023-05-10T10:09:07;6.80;;;4.55;;
22754;SDS011;11544;42.020;23.094;2023-05-10T10:11:35;6.18;;;4.60;;
22754;SDS011;11544;42.020;23.094;2023-05-10T10:14:12;6.05;;;5.15;;
22754;SDS011;11544;42.020;23.094;2023-05-10T10:16:39;6.35;;;4.88;;
22754;SDS011;11544;42.020;23.094;2023-05-10T10:19:25;7.85;;;4.93;;
22754;SDS011;11544;42.020;23.094;2023-05-10T10:21:52;5.47;;;4.55;;
22754;SDS011;11544;42.020;23.094;2023-05-10T10:24:19;7.45;;;5.60;;
22754;SDS011;11544;42.020;23.094;2023-05-10T10:26:46;6.13;;;4.55;;
22754;SDS011;11544;42.020;23.094;2023-05-10T10:34:34;5.20;;;4.43;;
22754;SDS011;11544;42.020;23.094;2023-05-10T10:37:04;4.95;;;4.40;;
22754;SDS011;11544;42.020;23.094;2023-05-10T10:39:32;4.70;;;3.90;;
22754;SDS011;11544;42.020;23.094;2023-05-10T10:42:03;5.40;;;3.85;;
22754;SDS011;11544;42.020;23.094;2023-05-10T10:55:05;7.03;;;4.82;;
22754;SDS011;11544;42.020;23.094;2023-05-10T11:08:00;4.22;;;3.55;;
22754;SDS011;11544;42.020;23.094;2023-05-10T11:10:33;5.30;;;4.05;;
22754;SDS011;11544;42.020;23.094;2023-05-10T11:13:01;6.07;;;4.60;;
22754;SDS011;11544;42.020;23.094;2023-05-10T11:15:29;5.38;;;4.18;;
22754;SDS011;11544;42.020;23.094;2023-05-10T11:18:16;4.38;;;3.83;;
22754;SDS011;11544;42.020;23.094;2023-05-10T11:20:51;6.03;;;4.38;;
22754;SDS011;11544;42.020;23.094;2023-05-10T11:23:22;5.47;;;4.18;;
22754;SDS011;11544;42.020;23.094;2023-05-10T11:25:49;4.55;;;3.95;;
22754;SDS011;11544;42.020;23.094;2023-05-10T11:28:17;6.03;;;4.63;;
22754;SDS011;11544;42.020;23.094;2023-05-10T11:30:46;7.25;;;4.40;;
22754;SDS011;11544;42.020;23.094;2023-05-10T11:33:17;4.95;;;4.05;;
22754;SDS011;11544;42.020;23.094;2023-05-10T11:35:46;5.72;;;3.53;;
22754;SDS011;11544;42.020;23.094;2023-05-10T11:38:13;6.75;;;4.55;;
22754;SDS011;11544;42.020;23.094;2023-05-10T11:40:40;4.63;;;4.22;;
22754;SDS011;11544;42.020;23.094;2023-05-10T11:43:12;4.30;;;3.90;;
22754;SDS011;11544;42.020;23.094;2023-05-10T11:45:40;5.82;;;4.05;;
22754;SDS011;11544;42.020;23.094;2023-05-10T11:48:07;4.88;;;4.10;;
22754;SDS011;11544;42.020;23.094;2023-05-10T11:50:34;6.00;;;3.60;;
22754;SDS011;11544;42.020;23.094;2023-05-10T11:53:01;4.78;;;3.63;;
22754;SDS011;11544;42.020;23.094;2023-05-10T11:55:29;4.35;;;3.90;;
22754;SDS011;11544;42.020;23.094;2023-05-10T11:58:00;4.82;;;3.13;;
22754;SDS011;11544;42.020;23.094;2023-05-10T12:00:28;3.83;;;3.40;;
22754;SDS011;11544;42.020;23.094;2023-05-10T12:02:56;7.45;;;3.97;;
22754;SDS011;11544;42.020;23.094;2023-05-10T12:05:23;4.75;;;3.65;;
22754;SDS011;11544;42.020;23.094;2023-05-10T12:07:50;4.03;;;3.53;;
22754;SDS011;11544;42.020;23.094;2023-05-10T12:10:18;6.18;;;3.53;;
22754;SDS011;11544;42.020;23.094;2023-05-10T12:12:51;4.80;;;3.60;;
22754;SDS011;11544;42.020;23.094;2023-05-10T12:17:47;4.28;;;3.72;;
22754;SDS011;11544;42.020;23.094;2023-05-10T12:20:21;5.07;;;3.30;;
22754;SDS011;11544;42.020;23.094;2023-05-10T12:22:50;6.25;;;4.13;;
22754;SDS011;11544;42.020;23.094;2023-05-10T12:25:18;6.07;;;3.83;;
22754;SDS011;11544;42.020;23.094;2023-05-10T12:27:54;5.95;;;3.72;;
22754;SDS011;11544;42.020;23.094;2023-05-10T12:30:22;3.92;;;3.33;;
22754;SDS011;11544;42.020;23.094;2023-05-10T12:32:50;3.53;;;3.22;;
22754;SDS011;11544;42.020;23.094;2023-05-10T12:35:18;4.20;;;2.78;;
22754;SDS011;11544;42.020;23.094;2023-05-10T12:37:52;3.67;;;3.00;;
22754;SDS011;11544;42.020;23.094;2023-05-10T12:40:19;3.42;;;2.92;;
22754;SDS011;11544;42.020;23.094;2023-05-10T12:42:46;4.25;;;2.75;;
22754;SDS011;11544;42.020;23.094;2023-05-10T12:45:13;7.63;;;3.20;;
22754;SDS011;11544;42.020;23.094;2023-05-10T12:47:40;6.05;;;4.03;;
22754;SDS011;11544;42.020;23.094;2023-05-10T12:50:09;7.35;;;3.70;;
22754;SDS011;11544;42.020;23.094;2023-05-10T12:52:37;4.53;;;2.97;;
22754;SDS011;11544;42.020;23.094;2023-05-10T12:55:04;11.63;;;4.22;;
22754;SDS011;11544;42.020;23.094;2023-05-10T12:57:34;5.35;;;3.58;;
22754;SDS011;11544;42.020;23.094;2023-05-10T13:00:01;6.22;;;3.47;;
22754;SDS011;11544;42.020;23.094;2023-05-10T13:02:28;4.90;;;3.50;;
22754;SDS011;11544;42.020;23.094;2023-05-10T13:04:55;3.45;;;2.88;;
22754;SDS011;11544;42.020;23.094;2023-05-10T13:07:22;5.72;;;3.50;;
22754;SDS011;11544;42.020;23.094;2023-05-10T13:09:49;2.97;;;2.50;;
22754;SDS011;11544;42.020;23.094;2023-05-10T13:12:16;3.00;;;2.70;;
22754;SDS011;11544;42.020;23.094;2023-05-10T13:14:45;4.00;;;2.85;;
22754;SDS011;11544;42.020;23.094;2023-05-10T13:17:14;3.47;;;3.05;;
22754;SDS011;11544;42.020;23.094;2023-05-10T13:19:41;3.38;;;2.95;;
22754;SDS011;11544;42.020;23.094;2023-05-10T13:22:08;3.08;;;2.75;;
22754;SDS011;11544;42.020;23.094;2023-05-10T13:24:34;4.60;;;2.00;;
22754;SDS011;11544;42.020;23.094;2023-05-10T13:27:01;6.75;;;2.67;;
22754;SDS011;11544;42.020;23.094;2023-05-10T13:29:28;5.22;;;2.00;;
22754;SDS011;11544;42.020;23.094;2023-05-10T13:31:55;7.80;;;3.28;;
22754;SDS011;11544;42.020;23.094;2023-05-10T13:34:22;1.70;;;1.60;;
22754;SDS011;11544;42.020;23.094;2023-05-10T13:36:50;3.35;;;1.70;;
22754;SDS011;11544;42.020;23.094;2023-05-10T13:39:17;2.58;;;1.20;;
22754;SDS011;11544;42.020;23.094;2023-05-10T13:41:44;1.50;;;1.10;;
22754;SDS011;11544;42.020;23.094;2023-05-10T13:44:12;4.18;;;1.88;;
22754;SDS011;11544;42.020;23.094;2023-05-10T13:46:43;2.90;;;2.13;;
22754;SDS011;11544;42.020;23.094;2023-05-10T13:49:09;0.90;;;0.90;;
22754;SDS011;11544;42.020;23.094;2023-05-10T13:51:37;4.38;;;1.60;;
22754;SDS011;11544;42.020;23.094;2023-05-10T13:54:04;2.63;;;1.25;;
22754;SDS011;11544;42.020;23.094;2023-05-10T13:56:31;4.72;;;2.25;;
22754;SDS011;11544;42.020;23.094;2023-05-10T13:58:58;2.63;;;1.70;;
22754;SDS011;11544;42.020;23.094;2023-05-10T14:01:25;2.17;;;1.27;;
22754;SDS011;11544;42.020;23.094;2023-05-10T14:03:52;1.30;;;1.20;;
22754;SDS011;11544;42.020;23.094;2023-05-10T14:06:19;4.78;;;1.30;;
22754;SDS011;11544;42.020;23.094;2023-05-10T14:08:46;2.97;;;1.02;;
22754;SDS011;11544;42.020;23.094;2023-05-10T14:11:16;1.40;;;1.00;;
22754;SDS011;11544;42.020;23.094;2023-05-10T14:13:44;2.83;;;1.15;;
22754;SDS011;11544;42.020;23.094;2023-05-10T14:16:10;1.40;;;1.20;;
22754;SDS011;11544;42.020;23.094;2023-05-10T14:18:38;2.95;;;1.45;;
22754;SDS011;11544;42.020;23.094;2023-05-10T14:21:08;2.00;;;1.17;;
22754;SDS011;11544;42.020;23.094;2023-05-10T14:23:34;0.82;;;0.80;;
22754;SDS011;11544;42.020;23.094;2023-05-10T14:26:01;1.20;;;1.10;;
22754;SDS011;11544;42.020;23.094;2023-05-10T14:28:29;2.13;;;1.50;;
22754;SDS011;11544;42.020;23.094;2023-05-10T14:30:56;2.00;;;1.75;;
22754;SDS011;11544;42.020;23.094;2023-05-10T14:33:31;2.80;;;1.60;;
22754;SDS011;11544;42.020;23.094;2023-05-10T14:35:58;3.55;;;1.75;;
22754;SDS011;11544;42.020;23.094;2023-05-10T14:38:26;5.53;;;2.00;;
22754;SDS011;11544;42.020;23.094;2023-05-10T14:40:53;4.85;;;1.55;;
22754;SDS011;11544;42.020;23.094;2023-05-10T14:43:20;2.40;;;1.40;;
22754;SDS011;11544;42.020;23.094;2023-05-10T14:45:47;1.48;;;1.25;;
22754;SDS011;11544;42.020;23.094;2023-05-10T14:48:14;1.67;;;1.42;;
22754;SDS011;11544;42.020;23.094;2023-05-10T14:50:43;1.70;;;1.25;;
22754;SDS011;11544;42.020;23.094;2023-05-10T14:53:11;2.25;;;1.20;;
22754;SDS011;11544;42.020;23.094;2023-05-10T14:55:38;1.95;;;1.40;;
22754;SDS011;11544;42.020;23.094;2023-05-10T14:58:05;5.30;;;4.18;;
22754;SDS011;11544;42.020;23.094;2023-05-10T15:00:32;9.73;;;6.38;;
22754;SDS011;11544;42.020;23.094;2023-05-10T15:02:59;7.85;;;6.35;;
22754;SDS011;11544;42.020;23.094;2023-05-10T15:05:27;10.68;;;7.07;;
22754;SDS011;11544;42.020;23.094;2023-05-10T15:07:54;9.23;;;6.35;;
22754;SDS011;11544;42.020;23.094;2023-05-10T15:10:21;7.85;;;6.20;;
22754;SDS011;11544;42.020;23.094;2023-05-10T15:12:48;8.32;;;5.32;;
22754;SDS011;11544;42.020;23.094;2023-05-10T15:15:16;7.25;;;5.53;;
22754;SDS011;11544;42.020;23.094;2023-05-10T15:17:43;7.07;;;6.32;;
22754;SDS011;11544;42.020;23.094;2023-05-10T15:20:10;7.65;;;6.22;;
22754;SDS011;11544;42.020;23.094;2023-05-10T15:22:37;7.80;;;5.93;;
22754;SDS011;11544;42.020;23.094;2023-05-10T15:25:04;9.75;;;7.60;;
22754;SDS011;11544;42.020;23.094;2023-05-10T15:27:32;8.90;;;6.82;;
22754;SDS011;11544;42.020;23.094;2023-05-10T15:30:13;9.60;;;6.95;;
22754;SDS011;11544;42.020;23.094;2023-05-10T15:32:42;12.93;;;8.80;;
22754;SDS011;11544;42.020;23.094;2023-05-10T15:35:18;11.82;;;8.00;;
22754;SDS011;11544;42.020;23.094;2023-05-10T15:37:46;10.60;;;7.93;;
22754;SDS011;11544;42.020;23.094;2023-05-10T15:40:14;11.85;;;8.13;;
22754;SDS011;11544;42.020;23.094;2023-05-10T15:42:42;10.98;;;7.90;;
22754;SDS011;11544;42.020;23.094;2023-05-10T15:45:09;14.07;;;8.52;;
22754;SDS011;11544;42.020;23.094;2023-05-10T15:47:37;9.63;;;7.65;;
22754;SDS011;11544;42.020;23.094;2023-05-10T15:50:14;10.65;;;7.90;;
22754;SDS011;11544;42.020;23.094;2023-05-10T15:52:46;10.68;;;8.77;;
22754;SDS011;11544;42.020;23.094;2023-05-10T15:55:16;13.18;;;8.48;;
22754;SDS011;11544;42.020;23.094;2023-05-10T15:57:44;14.40;;;8.13;;
22754;SDS011;11544;42.020;23.094;2023-05-10T16:00:15;15.70;;;9.02;;
22754;SDS011;11544;42.020;23.094;2023-05-10T16:02:43;10.65;;;8.27;;
22754;SDS011;11544;42.020;23.094;2023-05-10T16:05:10;12.30;;;8.75;;